Time;durP1;ratioP1;P1;durP2;ratioP2;P2;SDS_P1;SDS_P2;PMS_P1;PMS_P2;Temp;Humidity;BMP_temperature;BMP_pressure;BME280_temperature;BME280_humidity;BME280_pressure;Samples;Min_cycle;Max_cycle;Signal;HPM_P1;HPM_P2
2023/04/05 00:01:31;;;;;;;14.85;11.90;;;8.60;97.40;;;;;;5036178;28;20363;-84
2023/04/05 00:03:59;;;;;;;17.92;11.05;;;8.60;97.60;;;;;;5024566;28;20022;-85
2023/04/05 00:06:25;;;;;;;;;;;8.60;97.70;;;;;;5029360;28;20513;-84
2023/04/05 00:08:54;;;;;;;15.60;10.87;;;8.60;97.50;;;;;;5041151;28;19912;-85
2023/04/05 00:11:28;;;;;;;15.38;10.48;;;8.50;97.80;;;;;;5036437;28;20030;-85
2023/04/05 00:13:55;;;;;;;17.65;11.63;;;8.50;98.00;;;;;;5028420;28;20041;-85
2023/04/05 00:16:21;;;;;;;15.20;11.57;;;8.50;98.10;;;;;;5020889;28;20033;-85
2023/04/05 00:18:50;;;;;;;16.00;11.07;;;8.60;98.50;;;;;;5025383;28;20052;-83
2023/04/05 00:21:23;;;;;;;15.00;12.20;;;8.50;98.20;;;;;;5006375;28;20048;-84
2023/04/05 00:23:50;;;;;;;18.02;11.32;;;8.50;98.40;;;;;;5016567;28;20014;-84
2023/04/05 00:26:17;;;;;;;14.50;11.40;;;8.50;98.40;;;;;;5010489;28;20462;-84
2023/04/05 00:28:43;;;;;;;15.38;11.10;;;8.50;98.50;;;;;;5014870;28;20022;-83
2023/04/05 00:31:09;;;;;;;19.58;12.32;;;8.40;98.50;;;;;;5026116;28;20029;-83
2023/04/05 00:33:35;;;;;;;12.88;11.40;;;8.40;98.70;;;;;;5018434;28;20045;-83
2023/04/05 00:36:15;;;;;;;14.07;11.50;;;8.40;98.80;;;;;;5018764;28;20029;-83
2023/04/05 00:38:42;;;;;;;18.30;11.80;;;8.40;98.90;;;;;;5042024;28;20018;-83
2023/04/05 00:41:09;;;;;;;15.82;12.05;;;8.30;98.90;;;;;;5034316;28;20116;-83
2023/04/05 00:43:35;;;;;;;16.58;12.27;;;8.30;99.00;;;;;;5018464;28;20057;-84
2023/04/05 00:46:01;;;;;;;18.20;12.45;;;8.20;99.10;;;;;;5030410;28;20434;-84
2023/04/05 00:48:41;;;;;;;15.77;11.88;;;8.20;99.20;;;;;;5018224;28;20434;-84
2023/04/05 00:51:10;;;;;;;25.27;13.25;;;8.20;99.40;;;;;;5020689;28;20033;-84
2023/04/05 00:53:36;;;;;;;19.17;12.70;;;8.20;99.50;;;;;;5022999;28;20018;-83
2023/04/05 00:56:03;;;;;;;20.08;12.38;;;8.20;99.60;;;;;;5019219;28;20037;-84
2023/04/05 00:58:29;;;;;;;15.13;12.48;;;8.10;99.60;;;;;;5015754;28;20022;-83
2023/04/05 01:01:15;;;;;;;16.65;12.13;;;8.10;99.90;;;;;;5021526;28;20021;-84
2023/04/05 01:03:46;;;;;;;18.40;12.35;;;8.10;99.80;;;;;;5010871;28;20101;-85
2023/04/05 01:06:30;;;;;;;20.30;14.07;;;8.00;99.80;;;;;;5038110;28;20055;-85
2023/04/05 01:09:39;;;;;;;17.60;12.98;;;8.00;99.90;;;;;;5041164;28;20117;-84
2023/04/05 01:12:08;;;;;;;16.33;13.52;;;8.10;99.90;;;;;;5034562;28;20056;-84
2023/04/05 01:14:50;;;;;;;21.17;14.48;;;8.00;99.90;;;;;;5056588;28;20116;-84
2023/04/05 01:17:26;;;;;;;20.83;14.25;;;8.00;99.90;;;;;;5048697;28;20073;-82
2023/04/05 01:19:57;;;;;;;21.42;13.52;;;8.00;99.90;;;;;;5060918;28;20163;-82
2023/04/05 01:22:43;;;;;;;21.05;13.57;;;7.90;99.90;;;;;;5070541;28;20081;-82
2023/04/05 01:25:35;;;;;;;18.35;13.32;;;7.90;99.90;;;;;;5058354;28;20123;-83
2023/04/05 01:28:12;;;;;;;22.15;13.38;;;7.90;99.90;;;;;;5052452;28;20035;-82
2023/04/05 01:31:08;;;;;;;15.82;12.43;;;7.80;99.90;;;;;;5025064;28;20025;-83
2023/04/05 01:33:42;;;;;;;20.25;14.02;;;7.80;99.90;;;;;;5038229;28;20438;-84
2023/04/05 01:36:32;;;;;;;20.20;15.05;;;7.80;99.90;;;;;;5052063;28;20108;-83
2023/04/05 01:39:03;;;;;;;19.13;14.77;;;7.70;99.90;;;;;;5053022;28;20017;-84
2023/04/05 01:41:30;;;;;;;24.83;15.30;;;7.70;99.90;;;;;;5031220;28;20064;-84
2023/04/05 01:43:56;;;;;;;20.98;15.10;;;7.70;99.90;;;;;;5030227;28;20527;-83
2023/04/05 01:46:22;;;;;;;18.92;13.45;;;7.60;99.90;;;;;;5048193;28;20029;-84
2023/04/05 01:48:48;;;;;;;19.05;14.80;;;7.60;99.90;;;;;;5039032;28;20022;-82
2023/04/05 01:51:14;;;;;;;21.20;14.35;;;7.60;99.90;;;;;;5051105;28;20025;-84
2023/04/05 01:53:40;;;;;;;21.77;15.05;;;7.50;99.90;;;;;;5044567;28;20557;-84
2023/04/05 01:56:06;;;;;;;20.52;14.90;;;7.50;99.90;;;;;;5038360;28;20029;-83
2023/04/05 01:58:31;;;;;;;19.98;15.00;;;7.50;99.90;;;;;;5043547;28;20028;-83
2023/04/05 02:00:57;;;;;;;19.33;14.60;;;7.40;99.90;;;;;;5034749;28;20044;-85
2023/04/05 02:03:24;;;;;;;21.90;15.18;;;7.40;99.90;;;;;;5039532;28;20044;-83
2023/04/05 02:05:50;;;;;;;20.80;13.32;;;7.40;99.90;;;;;;5048461;28;20051;-84
2023/04/05 02:08:17;;;;;;;19.02;14.02;;;7.40;99.90;;;;;;5034649;28;20025;-83
2023/04/05 02:10:44;;;;;;;19.60;13.57;;;7.30;99.90;;;;;;5041361;28;20030;-84
2023/04/05 02:13:10;;;;;;;21.30;14.27;;;7.30;99.90;;;;;;5036555;28;20108;-85
2023/04/05 02:15:36;;;;;;;20.67;15.18;;;7.30;99.90;;;;;;5036801;28;20477;-83
2023/04/05 02:18:02;;;;;;;18.42;13.90;;;7.20;99.90;;;;;;5035304;28;20079;-84
2023/04/05 02:20:29;;;;;;;19.45;15.30;;;7.20;99.90;;;;;;5019351;28;20029;-85
2023/04/05 02:22:55;;;;;;;20.55;14.65;;;7.20;99.90;;;;;;5047817;28;20040;-83
2023/04/05 02:25:21;;;;;;;22.70;14.02;;;7.10;99.90;;;;;;5052283;28;20143;-85
2023/04/05 02:27:47;;;;;;;24.40;15.45;;;7.10;99.90;;;;;;5052861;28;20029;-83
2023/04/05 02:30:14;;;;;;;20.55;14.93;;;7.10;99.90;;;;;;5042650;28;20092;-86
2023/04/05 02:32:44;;;;;;;25.70;14.85;;;7.10;99.90;;;;;;5065919;28;20019;-85
2023/04/05 02:35:11;;;;;;;21.60;14.50;;;7.10;99.90;;;;;;5055634;28;20018;-83
2023/04/05 02:37:37;;;;;;;22.58;13.75;;;7.00;99.90;;;;;;5038827;28;20029;-83
2023/04/05 02:40:08;;;;;;;20.02;14.65;;;7.00;99.90;;;;;;5053941;28;20453;-85
2023/04/05 02:42:35;;;;;;;19.83;14.23;;;7.00;99.90;;;;;;5022763;28;20025;-86
2023/04/05 02:45:01;;;;;;;20.67;13.57;;;7.00;99.90;;;;;;5044899;28;20024;-85
2023/04/05 02:47:27;;;;;;;17.70;13.52;;;6.90;99.90;;;;;;5048076;28;20367;-85
2023/04/05 02:49:52;;;;;;;16.48;12.57;;;6.90;99.90;;;;;;5048384;28;20052;-84
2023/04/05 02:52:18;;;;;;;16.75;12.93;;;6.90;99.90;;;;;;5041062;28;20017;-84
2023/04/05 02:54:45;;;;;;;16.58;12.85;;;6.90;99.90;;;;;;5042511;28;20432;-83
2023/04/05 02:57:12;;;;;;;23.93;12.50;;;6.90;99.90;;;;;;5045734;28;20113;-84
2023/04/05 02:59:38;;;;;;;15.43;12.30;;;6.80;99.90;;;;;;5048899;28;20021;-85
2023/04/05 03:02:05;;;;;;;19.67;15.13;;;6.80;99.90;;;;;;5029685;28;20525;-84
2023/04/05 03:04:33;;;;;;;22.08;13.23;;;6.80;99.90;;;;;;5017265;28;20479;-83
2023/04/05 03:07:06;;;;;;;22.65;13.32;;;6.70;99.90;;;;;;5022878;28;20050;-83
2023/04/05 03:09:33;;;;;;;22.45;13.82;;;6.80;99.90;;;;;;5027453;28;20111;-83
2023/04/05 03:12:01;;;;;;;16.97;13.93;;;6.70;99.90;;;;;;5046129;28;20052;-85
2023/04/05 03:14:27;;;;;;;18.50;13.88;;;6.70;99.90;;;;;;5039477;28;20430;-85
2023/04/05 03:16:53;;;;;;;22.45;12.88;;;6.70;99.90;;;;;;5054505;28;20006;-86
2023/04/05 03:19:21;;;;;;;21.00;14.27;;;6.70;99.90;;;;;;5039320;28;20029;-85
2023/04/05 03:21:48;;;;;;;18.25;13.88;;;6.70;99.90;;;;;;5067685;28;20120;-82
2023/04/05 03:24:14;;;;;;;16.60;13.35;;;6.70;99.90;;;;;;5048180;28;20116;-83
2023/04/05 03:26:44;;;;;;;18.73;13.27;;;6.70;99.90;;;;;;5049421;28;20030;-84
2023/04/05 03:29:10;;;;;;;18.52;12.35;;;6.70;99.90;;;;;;5039988;28;20097;-83
2023/04/05 03:31:36;;;;;;;20.98;14.40;;;6.70;99.90;;;;;;5043454;28;20032;-83
2023/04/05 03:34:02;;;;;;;18.70;14.20;;;6.70;99.90;;;;;;5062339;28;20029;-84
2023/04/05 03:36:40;;;;;;;17.65;12.85;;;6.80;99.90;;;;;;5036025;28;20370;-83
2023/04/05 03:39:09;;;;;;;18.45;14.70;;;6.80;99.90;;;;;;5026559;28;20021;-82
2023/04/05 03:41:36;;;;;;;23.95;13.52;;;6.80;99.90;;;;;;5047449;28;20112;-84
2023/04/05 03:44:02;;;;;;;18.60;14.02;;;6.80;99.90;;;;;;5058580;28;20513;-84
2023/04/05 03:46:27;;;;;;;16.80;12.60;;;6.90;99.90;;;;;;5040271;28;20485;-84
2023/04/05 03:48:54;;;;;;;21.30;15.00;;;6.90;99.90;;;;;;5035571;28;20045;-84
2023/04/05 03:51:20;;;;;;;24.35;14.05;;;7.00;99.90;;;;;;5038003;28;20084;-84
2023/04/05 03:53:46;;;;;;;23.98;15.93;;;7.00;99.90;;;;;;5049944;28;20025;-84
2023/04/05 03:56:12;;;;;;;17.55;13.45;;;7.00;99.90;;;;;;5038854;28;20023;-85
2023/04/05 03:58:38;;;;;;;20.98;12.95;;;7.00;99.70;;;;;;5044382;28;20029;-83
2023/04/05 04:01:05;;;;;;;25.20;14.55;;;7.10;99.60;;;;;;5049129;28;20087;-84
2023/04/05 04:03:31;;;;;;;17.95;14.10;;;7.20;99.20;;;;;;5029819;28;20025;-84
2023/04/05 04:05:58;;;;;;;21.40;13.93;;;7.30;99.10;;;;;;5038907;28;20057;-85
2023/04/05 04:08:25;;;;;;;17.80;13.82;;;7.30;98.70;;;;;;5024413;28;20025;-85
2023/04/05 04:10:54;;;;;;;25.38;16.75;;;7.30;98.60;;;;;;5018800;28;20021;-85
2023/04/05 04:13:20;;;;;;;23.25;15.45;;;7.20;98.50;;;;;;5038859;28;20010;-85
2023/04/05 04:15:46;;;;;;;21.40;14.07;;;7.20;98.50;;;;;;5028994;28;20161;-86
2023/04/05 04:18:12;;;;;;;25.92;15.65;;;7.10;98.70;;;;;;5028541;28;20108;-84
2023/04/05 04:20:38;;;;;;;21.17;14.88;;;7.10;98.70;;;;;;5036170;28;20048;-84
2023/04/05 04:23:05;;;;;;;29.88;14.75;;;7.10;98.80;;;;;;5042512;28;20022;-82
2023/04/05 04:25:31;;;;;;;20.48;13.98;;;7.20;98.70;;;;;;5034647;28;20026;-84
2023/04/05 04:27:58;;;;;;;24.55;14.23;;;7.30;98.70;;;;;;5032127;28;20026;-83
2023/04/05 04:30:24;;;;;;;21.35;13.45;;;7.50;98.50;;;;;;5034540;28;20021;-83
2023/04/05 04:32:50;;;;;;;17.83;13.25;;;7.80;98.40;;;;;;5032804;28;20021;-84
2023/04/05 04:35:24;;;;;;;22.65;13.93;;;8.30;96.90;;;;;;5009619;28;20026;-83
2023/04/05 04:38:27;;;;;;;24.60;15.02;;;8.60;95.50;;;;;;5033152;28;20021;-84
2023/04/05 04:40:55;;;;;;;19.63;13.43;;;8.80;95.10;;;;;;5016875;28;20118;-84
2023/04/05 04:43:25;;;;;;;22.75;13.95;;;8.80;95.00;;;;;;5019016;28;20029;-86
2023/04/05 04:45:53;;;;;;;25.48;18.02;;;8.90;94.60;;;;;;5000033;28;20026;-84
2023/04/05 04:48:19;;;;;;;22.30;14.27;;;8.90;94.70;;;;;;5003590;28;20503;-85
2023/04/05 04:50:47;;;;;;;18.77;13.68;;;9.10;94.30;;;;;;5026934;28;20033;-86
2023/04/05 04:53:16;;;;;;;;;;;9.30;93.20;;;;;;5015649;28;20021;-84
2023/04/05 04:55:42;;;;;;;22.17;15.00;;;9.30;93.30;;;;;;5002076;28;20644;-85
2023/04/05 04:58:10;;;;;;;18.63;15.13;;;9.10;92.90;;;;;;5033966;28;20057;-85
2023/04/05 05:00:42;;;;;;;17.98;14.50;;;8.90;93.10;;;;;;5002543;28;20037;-87
2023/04/05 05:03:10;;;;;;;29.65;17.58;;;8.70;93.40;;;;;;5026010;28;20013;-87
2023/04/05 05:05:44;;;;;;;16.27;13.05;;;8.50;93.70;;;;;;5021195;28;20054;-87
2023/04/05 05:08:10;;;;;;;20.70;14.43;;;8.40;94.00;;;;;;5027616;28;20022;-84
2023/04/05 05:10:35;;;;;;;17.98;15.40;;;8.40;94.10;;;;;;5037739;28;20025;-88
2023/04/05 05:13:01;;;;;;;27.95;16.48;;;8.40;94.00;;;;;;5012717;28;20021;-88
2023/04/05 05:15:27;;;;;;;22.63;14.48;;;8.30;93.90;;;;;;5024460;28;20030;-88
2023/04/05 05:17:57;;;;;;;21.15;13.10;;;8.30;93.80;;;;;;5010772;28;20583;-86
2023/04/05 05:20:27;;;;;;;25.02;14.55;;;8.30;94.00;;;;;;5018275;28;20395;-86
2023/04/05 05:23:00;;;;;;;25.85;14.55;;;8.30;94.10;;;;;;4997731;28;20030;-86
2023/04/05 05:25:26;;;;;;;22.17;13.68;;;8.40;94.10;;;;;;5020987;28;20018;-86
2023/04/05 05:27:52;;;;;;;19.77;13.15;;;8.60;93.60;;;;;;5023879;28;20022;-87
2023/04/05 05:30:19;;;;;;;18.85;12.18;;;8.60;93.40;;;;;;5007547;28;20195;-89
2023/04/05 05:32:45;;;;;;;24.45;13.95;;;8.70;93.30;;;;;;5023137;28;20022;-88
2023/04/05 05:35:11;;;;;;;22.48;13.57;;;8.70;93.20;;;;;;5005526;28;20029;-85
2023/04/05 05:37:37;;;;;;;21.98;14.30;;;8.90;93.20;;;;;;5016574;28;20522;-86
2023/04/05 05:40:04;;;;;;;18.83;13.88;;;9.10;92.90;;;;;;5019155;28;20079;-91
2023/04/05 05:42:33;;;;;;;22.52;14.80;;;9.20;92.40;;;;;;5019707;28;20037;-86
2023/04/05 05:45:04;;;;;;;22.90;14.45;;;9.10;92.40;;;;;;5026733;28;20025;-86
2023/04/05 05:47:33;;;;;;;21.98;14.52;;;9.00;92.40;;;;;;5027259;28;20087;-87
2023/04/05 05:50:05;;;;;;;22.67;14.70;;;9.10;92.50;;;;;;5023305;28;20074;-86
2023/04/05 05:52:31;;;;;;;31.88;15.32;;;9.10;92.40;;;;;;5012918;28;20022;-87
2023/04/05 05:55:03;;;;;;;20.35;15.32;;;9.30;92.50;;;;;;5007251;28;20097;-86
2023/04/05 05:57:29;;;;;;;24.08;13.63;;;9.60;92.20;;;;;;5039770;28;20079;-86
2023/04/05 06:00:08;;;;;;;28.60;13.65;;;9.70;91.80;;;;;;5094997;27;1730346;-86
2023/04/05 06:02:34;;;;;;;17.30;13.30;;;9.90;91.20;;;;;;5147224;28;20031;-84
2023/04/05 06:05:01;;;;;;;26.48;12.93;;;10.00;91.00;;;;;;5128720;27;20016;-84
2023/04/05 06:07:27;;;;;;;29.08;14.63;;;10.10;91.20;;;;;;5122395;28;20038;-81
2023/04/05 06:09:53;;;;;;;29.48;14.23;;;10.60;90.90;;;;;;5127238;28;20062;-83
2023/04/05 06:12:22;;;;;;;25.88;14.05;;;11.40;89.90;;;;;;5130202;28;20015;-81
2023/04/05 06:14:48;;;;;;;28.17;14.23;;;12.00;86.90;;;;;;5129104;28;20099;-83
2023/04/05 06:17:14;;;;;;;27.05;14.63;;;12.50;83.40;;;;;;5136862;28;20054;-81
2023/04/05 06:19:41;;;;;;;27.30;14.18;;;12.60;82.30;;;;;;5107916;27;20040;-84
2023/04/05 06:22:07;;;;;;;24.35;13.13;;;12.70;81.10;;;;;;5114303;28;20100;-82
2023/04/05 06:24:33;;;;;;;18.55;12.25;;;12.30;81.10;;;;;;5116520;28;20434;-80
2023/04/05 06:27:00;;;;;;;36.03;13.88;;;11.90;82.00;;;;;;5113164;28;20020;-82
2023/04/05 06:29:25;;;;;;;27.43;13.27;;;12.00;82.70;;;;;;5112103;28;20035;-83
2023/04/05 06:31:51;;;;;;;27.00;13.68;;;12.10;82.50;;;;;;5114291;28;20028;-82
2023/04/05 06:34:17;;;;;;;13.75;9.77;;;12.50;81.80;;;;;;5112352;28;20042;-82
2023/04/05 06:36:43;;;;;;;25.75;13.05;;;12.80;80.00;;;;;;5099566;28;20389;-82
2023/04/05 06:39:09;;;;;;;16.13;11.52;;;12.60;79.30;;;;;;5102203;28;20070;-82
2023/04/05 06:41:35;;;;;;;24.55;13.40;;;12.50;79.30;;;;;;5111590;28;20012;-81
2023/04/05 06:44:01;;;;;;;16.42;10.52;;;12.40;80.10;;;;;;5111263;28;20028;-80
2023/04/05 06:46:27;;;;;;;22.63;11.70;;;12.30;80.60;;;;;;5114300;28;20512;-81
2023/04/05 06:49:06;;;;;;;16.73;11.70;;;12.30;80.40;;;;;;5112348;28;20050;-81
2023/04/05 06:51:52;;;;;;;23.50;11.85;;;12.60;79.90;;;;;;5112674;28;20441;-82
2023/04/05 06:54:40;;;;;;;18.55;11.85;;;13.70;79.40;;;;;;5111374;28;20030;-81
2023/04/05 06:57:10;;;;;;;21.33;12.02;;;14.70;74.50;;;;;;5112954;28;20047;-81
2023/04/05 07:02:33;;;;;;;17.75;10.88;;;15.50;70.80;;;;;;5110558;28;20032;-84
2023/04/05 07:05:07;;;;;;;22.83;14.10;;;15.60;69.20;;;;;;5112916;28;20076;-80
2023/04/05 07:07:44;;;;;;;17.80;10.95;;;15.20;69.80;;;;;;5110304;28;20020;-81
2023/04/05 07:10:10;;;;;;;18.15;12.02;;;14.60;71.00;;;;;;5105387;28;20412;-81
2023/04/05 07:12:38;;;;;;;16.92;11.02;;;14.50;72.40;;;;;;5097690;28;20028;-83
2023/04/05 07:15:07;;;;;;;17.55;11.60;;;15.00;71.10;;;;;;5097781;28;20022;-81
2023/04/05 07:17:34;;;;;;;17.00;11.27;;;15.20;69.30;;;;;;5099364;28;20039;-80
2023/04/05 07:19:59;;;;;;;22.30;12.43;;;15.30;69.10;;;;;;5100729;28;20036;-82
2023/04/05 07:22:25;;;;;;;19.20;12.75;;;15.30;69.50;;;;;;5101482;28;20073;-81
2023/04/05 07:24:52;;;;;;;19.20;11.82;;;15.40;69.10;;;;;;5088264;28;20123;-82
2023/04/05 07:27:20;;;;;;;20.30;10.80;;;15.40;68.50;;;;;;5100295;28;20027;-82
2023/04/05 07:29:47;;;;;;;18.92;11.25;;;15.90;67.90;;;;;;5098211;28;20021;-83
2023/04/05 07:32:16;;;;;;;18.48;10.02;;;16.40;66.30;;;;;;5097196;28;20027;-84
2023/04/05 07:34:46;;;;;;;19.10;10.73;;;16.70;64.70;;;;;;5096800;28;20027;-82
2023/04/05 07:37:13;;;;;;;26.55;11.57;;;16.70;64.30;;;;;;5099734;28;20073;-82
2023/04/05 07:39:39;;;;;;;22.45;12.65;;;16.70;64.10;;;;;;5100039;28;20111;-80
2023/04/05 07:42:05;;;;;;;23.13;12.63;;;16.70;63.20;;;;;;5102238;28;20042;-81
2023/04/05 07:44:31;;;;;;;19.08;10.95;;;16.60;63.90;;;;;;5097324;28;20024;-82
2023/04/05 07:46:57;;;;;;;23.63;11.13;;;16.90;63.80;;;;;;5100333;28;20093;-82
2023/04/05 07:49:26;;;;;;;23.13;12.27;;;17.30;62.80;;;;;;5085785;28;20460;-83
2023/04/05 07:51:58;;;;;;;20.60;12.35;;;17.70;61.50;;;;;;5102896;28;20061;-83
2023/04/05 07:54:24;;;;;;;23.55;12.10;;;18.00;60.30;;;;;;5098283;28;20016;-83
2023/04/05 07:56:51;;;;;;;17.38;11.02;;;17.70;59.70;;;;;;5097599;28;20024;-82
2023/04/05 07:59:17;;;;;;;28.95;13.13;;;17.40;60.80;;;;;;5097362;28;20100;-82
2023/04/05 08:01:42;;;;;;;31.45;18.42;;;17.50;60.30;;;;;;5096729;28;20036;-83
2023/04/05 08:04:08;;;;;;;22.10;12.93;;;17.30;61.10;;;;;;5096700;28;20028;-82
2023/04/05 08:06:34;;;;;;;20.58;13.43;;;17.40;61.00;;;;;;5098360;28;20024;-82
2023/04/05 08:09:02;;;;;;;27.98;14.18;;;17.80;60.70;;;;;;5097630;28;20020;-81
2023/04/05 08:11:28;;;;;;;22.27;12.50;;;18.20;59.50;;;;;;5102033;28;20012;-82
2023/04/05 08:13:54;;;;;;;23.40;13.07;;;18.40;58.50;;;;;;5102024;28;20031;-83
2023/04/05 08:16:20;;;;;;;18.33;11.30;;;18.70;57.60;;;;;;5102515;28;20016;-82
2023/04/05 08:18:46;;;;;;;21.40;11.20;;;19.00;57.40;;;;;;5098404;28;20082;-82
2023/04/05 08:21:12;;;;;;;19.05;12.10;;;19.30;56.60;;;;;;5098449;28;20024;-82
2023/04/05 08:23:38;;;;;;;26.77;12.98;;;19.10;56.30;;;;;;5097013;28;20032;-81
2023/04/05 08:26:06;;;;;;;18.60;11.38;;;19.60;56.10;;;;;;5096860;28;20381;-82
2023/04/05 08:28:33;;;;;;;15.70;11.45;;;19.80;54.90;;;;;;5098547;28;20047;-81
2023/04/05 08:30:59;;;;;;;17.80;12.10;;;19.30;54.90;;;;;;5101643;28;20020;-82
2023/04/05 08:33:27;;;;;;;19.42;13.27;;;18.90;56.30;;;;;;5100816;28;20024;-81
2023/04/05 08:35:53;;;;;;;26.70;12.88;;;19.30;55.90;;;;;;5097755;28;20057;-82
2023/04/05 08:38:19;;;;;;;21.08;12.07;;;19.80;55.30;;;;;;5098211;28;20032;-81
2023/04/05 08:40:46;;;;;;;23.40;13.55;;;20.30;54.10;;;;;;5097710;28;20012;-82
2023/04/05 08:43:39;;;;;;;22.75;12.90;;;20.60;53.10;;;;;;5102226;28;20020;-82
2023/04/05 08:46:08;;;;;;;19.33;12.73;;;20.60;52.60;;;;;;5085607;28;20024;-82
2023/04/05 08:48:35;;;;;;;23.63;13.25;;;20.70;52.40;;;;;;5097268;28;20024;-83
2023/04/05 08:51:01;;;;;;;19.73;12.97;;;20.60;52.10;;;;;;5098462;28;20031;-81
2023/04/05 08:53:27;;;;;;;18.95;13.00;;;20.40;52.50;;;;;;5100307;28;20253;-82
2023/04/05 08:55:56;;;;;;;35.17;13.30;;;19.80;53.00;;;;;;5103100;28;20072;-82
2023/04/05 08:58:24;;;;;;;16.35;12.35;;;19.40;54.40;;;;;;5097954;28;20052;-81
2023/04/05 09:00:51;;;;;;;27.45;14.07;;;19.60;54.50;;;;;;5098253;28;20107;-82
2023/04/05 09:03:22;;;;;;;18.10;12.50;;;20.10;53.80;;;;;;5098008;28;20032;-81
2023/04/05 09:05:51;;;;;;;25.45;13.75;;;20.60;53.10;;;;;;5099986;28;20031;-81
2023/04/05 09:08:20;;;;;;;18.52;13.00;;;20.70;52.20;;;;;;5097570;28;20023;-80
2023/04/05 09:10:50;;;;;;;16.88;11.75;;;20.30;52.50;;;;;;5096466;28;20055;-82
2023/04/05 09:13:16;;;;;;;21.83;12.10;;;20.00;53.50;;;;;;5096125;28;20028;-82
2023/04/05 09:15:43;;;;;;;19.75;11.90;;;20.50;53.30;;;;;;5096838;28;20028;-83
2023/04/05 09:18:09;;;;;;;22.10;12.47;;;21.10;51.80;;;;;;5097571;28;20023;-82
2023/04/05 09:20:35;;;;;;;27.23;12.80;;;21.50;51.40;;;;;;5097137;28;20487;-81
2023/04/05 09:23:00;;;;;;;23.00;12.40;;;21.80;50.80;;;;;;5097489;28;20020;-81
2023/04/05 09:25:41;;;;;;;17.70;11.90;;;22.40;50.40;;;;;;5097097;28;20034;-81
2023/04/05 09:28:08;;;;;;;22.60;11.45;;;23.30;48.80;;;;;;5095861;28;20097;-81
2023/04/05 09:30:36;;;;;;;20.17;12.20;;;23.70;47.10;;;;;;5095431;28;20020;-84
2023/04/05 09:33:03;;;;;;;17.33;10.98;;;24.00;46.30;;;;;;5096128;28;20016;-80
2023/04/05 09:35:32;;;;;;;16.02;11.45;;;24.20;45.90;;;;;;5096147;28;20016;-81
2023/04/05 09:38:00;;;;;;;26.02;11.43;;;24.50;45.40;;;;;;5095198;28;20380;-83
2023/04/05 09:40:50;;;;;;;22.13;11.48;;;24.50;45.30;;;;;;5094046;28;20034;-82
2023/04/05 09:43:35;;;;;;;13.10;10.50;;;25.10;45.40;;;;;;5096864;28;20019;-83
2023/04/05 09:46:01;;;;;;;24.33;11.75;;;25.90;44.30;;;;;;5095791;28;20020;-82
2023/04/05 09:48:48;;;;;;;15.35;11.13;;;26.30;42.60;;;;;;5095700;28;20071;-82
2023/04/05 09:51:15;;;;;;;19.00;11.52;;;26.60;43.10;;;;;;5083261;28;20056;-81
2023/04/05 09:54:00;;;;;;;18.98;10.82;;;26.90;41.60;;;;;;5094516;28;20016;-81
2023/04/05 09:56:29;;;;;;;26.23;10.98;;;27.30;41.90;;;;;;5095379;28;20039;-82
2023/04/05 09:59:05;;;;;;;25.05;11.73;;;27.50;40.90;;;;;;5097238;28;20048;-81
2023/04/05 10:01:31;;;;;;;19.02;9.98;;;27.30;40.70;;;;;;5095091;28;20024;-80
2023/04/05 10:03:58;;;;;;;24.05;10.65;;;27.20;40.50;;;;;;5093804;28;20024;-84
2023/04/05 10:06:41;;;;;;;20.05;11.13;;;27.30;40.10;;;;;;5095569;28;20016;-82
2023/04/05 10:09:09;;;;;;;20.17;11.30;;;26.90;40.80;;;;;;5096139;28;20078;-83
2023/04/05 10:11:37;;;;;;;15.95;10.95;;;26.60;40.80;;;;;;5096078;28;20013;-82
2023/04/05 10:14:06;;;;;;;19.58;11.20;;;26.40;40.90;;;;;;5096029;28;20042;-80
2023/04/05 10:16:53;;;;;;;16.40;10.00;;;25.80;41.80;;;;;;5094414;28;20031;-82
2023/04/05 10:19:28;;;;;;;20.65;10.57;;;25.60;41.80;;;;;;5065482;28;20047;-82
2023/04/05 10:21:56;;;;;;;20.30;10.88;;;24.90;42.30;;;;;;5094361;28;20389;-81
2023/04/05 10:24:43;;;;;;;20.30;9.77;;;24.40;43.20;;;;;;5095254;28;20019;-82
2023/04/05 10:27:15;;;;;;;18.50;11.18;;;23.70;43.80;;;;;;5095376;28;20385;-81
2023/04/05 10:29:55;;;;;;;22.33;10.75;;;22.40;45.60;;;;;;5094045;28;20107;-81
2023/04/05 10:32:40;;;;;;;19.58;10.77;;;21.10;48.20;;;;;;5096720;28;20078;-83
2023/04/05 10:35:15;;;;;;;15.43;11.70;;;19.80;50.60;;;;;;5096477;28;20024;-83
2023/04/05 10:37:48;;;;;;;25.52;11.18;;;18.90;52.50;;;;;;5097659;28;20074;-81
2023/04/05 10:40:17;;;;;;;16.20;11.60;;;18.30;54.20;;;;;;5098013;28;20023;-81
2023/04/05 10:42:45;;;;;;;21.52;12.25;;;17.90;55.70;;;;;;5096349;28;20103;-82
2023/04/05 10:45:14;;;;;;;17.13;10.77;;;17.60;55.90;;;;;;5096785;28;20020;-81
2023/04/05 10:47:49;;;;;;;20.25;13.75;;;17.30;56.90;;;;;;5083915;28;20027;-82
2023/04/05 10:50:23;;;;;;;18.45;11.20;;;17.20;57.60;;;;;;5103821;28;20035;-82
2023/04/05 10:52:52;;;;;;;24.83;12.57;;;17.00;58.20;;;;;;5098070;28;20504;-82
2023/04/05 10:55:19;;;;;;;17.13;11.93;;;16.90;58.80;;;;;;5098131;28;20553;-81
2023/04/05 10:57:46;;;;;;;;;;;16.80;59.00;;;;;;5099913;28;20373;-81
2023/04/05 11:00:14;;;;;;;15.25;10.48;;;16.60;58.20;;;;;;5098053;28;20045;-81
2023/04/05 11:02:40;;;;;;;20.60;11.52;;;16.30;59.60;;;;;;5098373;28;20054;-81
2023/04/05 11:05:27;;;;;;;26.77;11.18;;;16.20;60.60;;;;;;5098834;28;20077;-83
2023/04/05 11:07:55;;;;;;;24.30;11.18;;;16.10;60.90;;;;;;5097764;28;20032;-82
2023/04/05 11:10:23;;;;;;;20.25;10.57;;;15.90;60.90;;;;;;5099329;28;20489;-82
2023/04/05 11:12:48;;;;;;;21.98;11.45;;;15.90;61.60;;;;;;5104368;28;20024;-80
2023/04/05 11:15:26;;;;;;;20.85;11.20;;;15.90;61.80;;;;;;5106491;28;20012;-82
2023/04/05 11:18:10;;;;;;;20.20;11.90;;;15.80;62.20;;;;;;5105836;28;20031;-81
2023/04/05 11:20:47;;;;;;;17.58;10.32;;;15.90;62.40;;;;;;5090545;28;20035;-83
2023/04/05 11:23:18;;;;;;;16.75;10.27;;;15.90;62.60;;;;;;5105740;28;20028;-83
2023/04/05 11:25:56;;;;;;;26.70;11.80;;;15.90;62.70;;;;;;5107030;28;20070;-80
2023/04/05 11:28:27;;;;;;;25.52;11.55;;;15.90;62.60;;;;;;5102683;28;20551;-83
2023/04/05 11:31:02;;;;;;;20.92;11.45;;;15.90;62.90;;;;;;5103704;28;20024;-82
2023/04/05 11:33:58;;;;;;;19.25;9.88;;;15.80;62.70;;;;;;5106002;28;20032;-83
2023/04/05 11:36:46;;;;;;;25.88;10.80;;;15.80;62.80;;;;;;5086200;28;20052;-82
2023/04/05 11:39:21;;;;;;;17.25;10.77;;;15.70;63.20;;;;;;5101617;28;20032;-81
2023/04/05 11:41:55;;;;;;;19.10;11.27;;;15.60;63.30;;;;;;5098435;28;20420;-82
2023/04/05 11:44:25;;;;;;;25.40;13.27;;;15.50;63.80;;;;;;5096852;28;20028;-82
2023/04/05 11:46:53;;;;;;;22.20;12.57;;;15.50;64.20;;;;;;5097244;28;20121;-83
2023/04/05 11:49:23;;;;;;;21.67;10.43;;;15.50;64.30;;;;;;5097462;28;20035;-82
2023/04/05 11:51:51;;;;;;;19.58;11.20;;;15.40;64.50;;;;;;5096999;28;20472;-83
2023/04/05 11:54:33;;;;;;;21.00;11.90;;;15.40;64.90;;;;;;5098141;28;20065;-82
2023/04/05 11:57:00;;;;;;;19.52;12.38;;;15.40;65.20;;;;;;5098186;28;20027;-81
2023/04/05 11:59:34;;;;;;;23.27;11.60;;;15.30;65.20;;;;;;5098061;28;20036;-82
2023/04/05 12:02:06;;;;;;;22.08;11.02;;;15.40;65.50;;;;;;5095749;28;20493;-83
2023/04/05 12:04:36;;;;;;;16.48;9.88;;;15.30;65.80;;;;;;5096455;28;20108;-82
2023/04/05 12:07:18;;;;;;;17.52;9.98;;;15.30;65.80;;;;;;5099036;28;20020;-81
2023/04/05 12:10:07;;;;;;;16.40;9.48;;;15.30;65.60;;;;;;5097411;28;20510;-83
2023/04/05 12:12:35;;;;;;;20.75;10.75;;;15.20;65.90;;;;;;5099546;28;20059;-82
2023/04/05 12:15:02;;;;;;;15.32;10.10;;;15.10;66.00;;;;;;5098361;28;20381;-82
2023/04/05 12:17:51;;;;;;;17.75;10.50;;;15.10;66.20;;;;;;5098228;28;20396;-83
2023/04/05 12:20:19;;;;;;;16.90;9.43;;;15.10;66.40;;;;;;5105108;28;20039;-82
2023/04/05 12:22:48;;;;;;;18.42;9.57;;;15.00;66.20;;;;;;5102976;28;20020;-82
2023/04/05 12:25:15;;;;;;;17.42;9.55;;;15.00;66.30;;;;;;5102408;28;20072;-84
2023/04/05 12:27:41;;;;;;;;;;;14.80;66.50;;;;;;5099025;28;20026;-82
2023/04/05 12:30:15;;;;;;;15.40;9.63;;;14.80;66.50;;;;;;5098963;28;19923;-84
2023/04/05 12:32:43;;;;;;;16.27;10.90;;;14.70;67.10;;;;;;5099053;28;20042;-82
2023/04/05 12:35:18;;;;;;;15.65;10.15;;;14.80;67.30;;;;;;5100695;28;20023;-83
2023/04/05 12:37:45;;;;;;;18.23;10.15;;;14.80;67.20;;;;;;5093304;28;20029;-82
2023/04/05 12:40:11;;;;;;;10.32;7.35;;;14.90;67.20;;;;;;5096746;28;20047;-81
2023/04/05 12:42:39;;;;;;;14.32;8.20;;;15.00;66.70;;;;;;5103561;28;20110;-81
2023/04/05 12:45:12;;;;;;;13.70;8.52;;;15.00;66.30;;;;;;5100552;28;20047;-84
2023/04/05 12:47:55;;;;;;;25.30;10.23;;;15.00;66.40;;;;;;5083692;28;20394;-83
2023/04/05 12:50:28;;;;;;;9.50;7.10;;;15.20;66.00;;;;;;5097498;28;20036;-84